createdAt,value
2019-03-30T00:00:46.923Z,6.3
2019-03-30T00:01:49.462Z,6.3
2019-03-30T00:02:51.809Z,6.3
2019-03-30T00:03:53.830Z,6.3
2019-03-30T00:04:55.881Z,6.3
2019-03-30T00:05:57.920Z,6.3
2019-03-30T00:06:59.977Z,6.2
2019-03-30T00:08:02.023Z,6.2
2019-03-30T00:09:04.059Z,6.2
2019-03-30T00:10:06.109Z,6.3
2019-03-30T00:11:08.149Z,6.3
2019-03-30T00:12:10.207Z,6.3
2019-03-30T00:13:12.242Z,6.2
2019-03-30T00:14:14.359Z,6.2
2019-03-30T00:15:16.400Z,6.1
2019-03-30T00:16:18.811Z,6.1
2019-03-30T00:17:20.869Z,6.1
2019-03-30T00:18:22.906Z,6.1
2019-03-30T00:19:36.244Z,6.1
2019-03-30T00:20:38.264Z,6
2019-03-30T00:21:40.312Z,6
2019-03-30T00:22:42.347Z,6
2019-03-30T00:23:44.378Z,6
2019-03-30T00:24:47.177Z,6.1
2019-03-30T00:25:49.245Z,6.1
2019-03-30T00:26:51.281Z,6
2019-03-30T00:27:53.349Z,6.1
2019-03-30T00:28:56.064Z,6.2
2019-03-30T00:29:58.085Z,6.2
2019-03-30T00:31:00.124Z,6.3
2019-03-30T00:32:02.161Z,6.2
2019-03-30T00:33:04.517Z,6.2
2019-03-30T00:34:06.558Z,6.1
2019-03-30T00:35:08.889Z,6.1
2019-03-30T00:36:10.928Z,6.1
2019-03-30T00:37:12.953Z,6.2
2019-03-30T00:38:14.991Z,6.1
2019-03-30T00:39:17.031Z,6.1
2019-03-30T00:40:19.068Z,6
2019-03-30T00:41:21.121Z,6.1
2019-03-30T00:42:23.153Z,6
2019-03-30T00:43:25.179Z,6
2019-03-30T00:44:27.210Z,5.9
2019-03-30T00:45:29.270Z,5.9
2019-03-30T00:46:31.295Z,6
2019-03-30T00:47:33.703Z,6
2019-03-30T00:48:35.747Z,6
2019-03-30T00:49:50.990Z,6
2019-03-30T00:50:53.031Z,6
2019-03-30T00:51:55.460Z,6
2019-03-30T00:52:57.527Z,5.9
2019-03-30T00:53:59.823Z,6
2019-03-30T00:55:02.250Z,5.9
2019-03-30T00:56:04.292Z,6
2019-03-30T00:57:06.328Z,6
2019-03-30T00:58:08.382Z,5.9
2019-03-30T00:59:10.473Z,5.9
2019-03-30T01:00:12.506Z,5.9
2019-03-30T01:01:14.547Z,5.8
2019-03-30T01:02:16.879Z,5.8
2019-03-30T01:03:18.916Z,5.8
2019-03-30T01:04:21.332Z,5.8
2019-03-30T01:05:23.427Z,5.8
2019-03-30T01:06:25.741Z,5.8
2019-03-30T01:07:27.791Z,5.8
2019-03-30T01:08:29.833Z,5.8
2019-03-30T01:09:31.878Z,5.8
2019-03-30T01:10:33.897Z,5.8
2019-03-30T01:11:35.989Z,5.8
2019-03-30T01:12:38.031Z,5.8
2019-03-30T01:13:40.076Z,5.8
2019-03-30T01:14:42.121Z,5.7
2019-03-30T01:15:44.155Z,5.7
2019-03-30T01:16:46.181Z,5.7
2019-03-30T01:17:48.500Z,5.8
2019-03-30T01:18:50.555Z,5.7
2019-03-30T01:20:04.705Z,5.7
2019-03-30T01:21:07.031Z,5.7
2019-03-30T01:22:09.066Z,5.8
2019-03-30T01:23:11.102Z,5.9
2019-03-30T01:24:13.146Z,5.8
2019-03-30T01:25:15.175Z,5.9
2019-03-30T01:26:17.217Z,5.9
2019-03-30T01:27:19.244Z,5.9
2019-03-30T01:28:21.375Z,5.8
2019-03-30T01:29:23.693Z,5.8
2019-03-30T01:30:25.731Z,5.8
2019-03-30T01:31:27.774Z,5.8
2019-03-30T01:32:29.792Z,5.8
2019-03-30T01:33:32.230Z,5.9
2019-03-30T01:34:34.279Z,5.9
2019-03-30T01:35:36.337Z,5.8
2019-03-30T01:36:38.358Z,5.8
2019-03-30T01:37:40.393Z,5.8
2019-03-30T01:38:42.423Z,5.7
2019-03-30T01:39:44.458Z,5.7
2019-03-30T01:40:46.505Z,5.6
2019-03-30T01:41:48.652Z,5.7
2019-03-30T01:42:50.689Z,5.7
2019-03-30T01:43:52.742Z,5.7
2019-03-30T01:44:54.765Z,5.7
2019-03-30T01:45:56.794Z,5.6
2019-03-30T01:46:58.827Z,5.6
2019-03-30T01:48:00.879Z,5.6
2019-03-30T01:49:02.909Z,5.6
2019-03-30T01:50:19.326Z,5.6
2019-03-30T01:51:21.348Z,5.6
2019-03-30T01:52:23.397Z,5.6
2019-03-30T01:53:25.472Z,5.7
2019-03-30T01:54:27.503Z,5.7
2019-03-30T01:55:29.824Z,5.7
2019-03-30T01:56:31.841Z,5.7
2019-03-30T01:57:33.966Z,5.8
2019-03-30T01:58:36.279Z,5.7
2019-03-30T01:59:38.311Z,5.8
2019-03-30T02:00:40.330Z,5.8
2019-03-30T02:01:42.387Z,5.7
2019-03-30T02:02:44.434Z,5.8
2019-03-30T02:03:46.463Z,5.7
2019-03-30T02:04:48.510Z,5.7
2019-03-30T02:05:50.540Z,5.7
2019-03-30T02:06:52.861Z,5.7
2019-03-30T02:07:54.904Z,5.7
2019-03-30T02:08:56.940Z,5.7
2019-03-30T02:09:59.355Z,5.6
2019-03-30T02:11:01.687Z,5.6
2019-03-30T02:12:03.723Z,5.5
2019-03-30T02:13:05.852Z,5.6
2019-03-30T02:14:08.186Z,5.7
2019-03-30T02:15:10.605Z,5.7
2019-03-30T02:16:13.084Z,5.7
2019-03-30T02:17:15.141Z,5.6
2019-03-30T02:18:17.448Z,5.6
2019-03-30T02:19:19.480Z,5.6
2019-03-30T02:20:32.084Z,5.5
2019-03-30T02:21:34.387Z,5.5
2019-03-30T02:22:36.429Z,5.4
2019-03-30T02:23:38.551Z,5.4
2019-03-30T02:24:40.595Z,5.5
2019-03-30T02:25:42.625Z,5.6
2019-03-30T02:26:44.684Z,5.5
2019-03-30T02:27:46.721Z,5.5
2019-03-30T02:28:49.423Z,5.5
2019-03-30T02:29:51.746Z,5.5
2019-03-30T02:30:53.796Z,5.6
2019-03-30T02:31:57.196Z,5.5
2019-03-30T02:32:59.532Z,5.5
2019-03-30T02:34:01.906Z,5.4
2019-03-30T02:35:04.517Z,5.5
2019-03-30T02:36:06.655Z,5.6
2019-03-30T02:37:08.840Z,5.6
2019-03-30T02:38:11.666Z,5.6
2019-03-30T02:39:14.397Z,5.5
2019-03-30T02:40:16.829Z,5.5
2019-03-30T02:41:19.467Z,5.5
2019-03-30T02:42:21.508Z,5.5
2019-03-30T02:43:23.588Z,5.4
2019-03-30T02:44:25.666Z,5.4
2019-03-30T02:45:28.071Z,5.4
2019-03-30T02:46:30.696Z,5.4
2019-03-30T02:47:32.773Z,5.4
2019-03-30T02:48:35.433Z,5.3
2019-03-30T02:49:37.551Z,5.3
2019-03-30T02:50:51.661Z,5.3
2019-03-30T02:51:54.443Z,5.3
2019-03-30T02:52:56.654Z,5.3
2019-03-30T02:53:58.842Z,5.3
2019-03-30T02:55:01.361Z,5.3
2019-03-30T02:56:04.258Z,5.4
2019-03-30T02:57:06.669Z,5.4
2019-03-30T02:58:09.014Z,5.4
2019-03-30T02:59:11.084Z,5.5
2019-03-30T03:00:13.526Z,5.5
2019-03-30T03:01:15.567Z,5.5
2019-03-30T03:02:18.173Z,5.5
2019-03-30T03:03:20.502Z,5.4
2019-03-30T03:04:22.828Z,5.4
2019-03-30T03:05:25.532Z,5.4
2019-03-30T03:06:27.890Z,5.4
2019-03-30T03:07:30.266Z,5.4
2019-03-30T03:08:32.313Z,5.4
2019-03-30T03:09:34.375Z,5.4
2019-03-30T03:10:36.438Z,5.4
2019-03-30T03:11:38.467Z,5.3
2019-03-30T03:12:40.928Z,5.3
2019-03-30T03:13:43.633Z,5.3
2019-03-30T03:14:46.357Z,5.3
2019-03-30T03:15:48.804Z,5.3
2019-03-30T03:16:50.894Z,5.3
2019-03-30T03:17:53.233Z,5.3
2019-03-30T03:18:55.303Z,5.2
2019-03-30T03:19:58.318Z,5.2
2019-03-30T03:21:09.861Z,5.2
2019-03-30T03:22:12.344Z,5.1
2019-03-30T03:23:14.697Z,5.1
2019-03-30T03:24:17.020Z,5.1
2019-03-30T03:25:20.319Z,5.1
2019-03-30T03:26:23.024Z,5
2019-03-30T03:27:25.055Z,5
2019-03-30T03:28:27.520Z,4.9
2019-03-30T03:29:29.852Z,4.9
2019-03-30T03:30:31.913Z,4.9
2019-03-30T03:31:34.760Z,4.9
2019-03-30T03:32:37.615Z,4.9
2019-03-30T03:33:40.554Z,4.9
2019-03-30T03:34:43.080Z,4.9
2019-03-30T03:35:45.298Z,4.9
2019-03-30T03:36:47.736Z,4.9
2019-03-30T03:37:49.804Z,4.9
2019-03-30T03:38:51.869Z,4.9
2019-03-30T03:39:54.232Z,4.9
2019-03-30T03:40:56.944Z,4.9
2019-03-30T03:41:59.573Z,4.9
2019-03-30T03:43:01.606Z,4.9
2019-03-30T03:44:03.961Z,4.9
2019-03-30T03:45:06.571Z,5
2019-03-30T03:46:08.926Z,5
2019-03-30T03:47:11.092Z,4.9
2019-03-30T03:48:13.412Z,4.9
2019-03-30T03:49:15.732Z,5
2019-03-30T03:50:17.791Z,5
2019-03-30T03:51:27.660Z,4.9
2019-03-30T03:52:30.076Z,4.9
2019-03-30T03:53:32.133Z,4.9
2019-03-30T03:54:34.992Z,4.9
2019-03-30T03:55:37.734Z,4.8
2019-03-30T03:56:40.425Z,4.8
2019-03-30T03:57:42.840Z,4.8
2019-03-30T03:58:45.769Z,4.8
2019-03-30T03:59:48.369Z,4.8
2019-03-30T04:00:51.633Z,4.8
2019-03-30T04:01:54.470Z,4.8
2019-03-30T04:02:57.451Z,4.8
2019-03-30T04:04:00.649Z,4.8
2019-03-30T04:05:03.621Z,4.8
2019-03-30T04:06:06.579Z,4.8
2019-03-30T04:07:09.339Z,4.8
2019-03-30T04:08:12.119Z,4.8
2019-03-30T04:09:14.283Z,4.8
2019-03-30T04:10:16.430Z,4.8
2019-03-30T04:11:19.238Z,4.8
2019-03-30T04:12:21.983Z,4.7
2019-03-30T04:13:24.554Z,4.7
2019-03-30T04:14:27.106Z,4.7
2019-03-30T04:15:30.098Z,4.7
2019-03-30T04:16:33.030Z,4.7
2019-03-30T04:17:35.664Z,4.8
2019-03-30T04:18:37.729Z,4.8
2019-03-30T04:19:40.076Z,4.8
2019-03-30T04:20:42.824Z,4.8
2019-03-30T04:21:46.411Z,4.8
2019-03-30T04:22:48.515Z,4.8
2019-03-30T04:23:55.566Z,4.8
2019-03-30T04:24:57.731Z,4.8
2019-03-30T04:26:00.066Z,4.9
2019-03-30T04:27:02.168Z,4.9
2019-03-30T04:28:04.209Z,4.9
2019-03-30T04:29:06.529Z,4.9
2019-03-30T04:30:08.584Z,4.8
2019-03-30T04:31:11.006Z,4.9
2019-03-30T04:32:13.342Z,4.9
2019-03-30T04:33:15.987Z,4.9
2019-03-30T04:34:18.359Z,5
2019-03-30T04:35:21.388Z,5
2019-03-30T04:36:24.362Z,5
2019-03-30T04:37:26.392Z,5
2019-03-30T04:38:28.423Z,5
2019-03-30T04:39:31.047Z,5
2019-03-30T04:40:33.362Z,4.9
2019-03-30T04:41:35.398Z,4.9
2019-03-30T04:42:37.451Z,4.9
2019-03-30T04:43:39.861Z,4.9
2019-03-30T04:44:41.919Z,5
2019-03-30T04:45:44.281Z,5
2019-03-30T04:46:46.618Z,4.9
2019-03-30T04:47:48.640Z,5
2019-03-30T04:48:50.798Z,4.9
2019-03-30T04:49:53.405Z,4.9
2019-03-30T04:50:55.438Z,4.9
2019-03-30T04:51:59.164Z,4.9
2019-03-30T04:53:01.189Z,4.9
2019-03-30T04:54:03.312Z,4.9
2019-03-30T04:55:05.350Z,4.9
2019-03-30T04:56:07.390Z,4.9
2019-03-30T04:57:09.447Z,4.9
2019-03-30T04:58:11.484Z,4.9
2019-03-30T04:59:13.510Z,4.8
2019-03-30T05:00:16.229Z,4.8
2019-03-30T05:01:18.632Z,4.9
2019-03-30T05:02:20.692Z,4.9
2019-03-30T05:03:22.737Z,4.9
2019-03-30T05:04:25.180Z,4.9
2019-03-30T05:05:27.232Z,4.9
2019-03-30T05:06:29.277Z,4.9
2019-03-30T05:07:31.305Z,5
2019-03-30T05:08:33.625Z,5
2019-03-30T05:09:35.674Z,5
2019-03-30T05:10:38.104Z,5
2019-03-30T05:11:40.152Z,5
2019-03-30T05:12:42.894Z,5
2019-03-30T05:13:44.949Z,5.1
2019-03-30T05:14:46.978Z,5.1
2019-03-30T05:15:49.014Z,5
2019-03-30T05:16:51.331Z,4.9
2019-03-30T05:17:53.361Z,4.9
2019-03-30T05:18:55.818Z,5
2019-03-30T05:19:58.142Z,5
2019-03-30T05:21:00.465Z,5
2019-03-30T05:22:17.963Z,5
2019-03-30T05:23:19.998Z,5
2019-03-30T05:24:22.031Z,5
2019-03-30T05:25:24.435Z,5
2019-03-30T05:26:26.482Z,5
2019-03-30T05:27:28.558Z,5
2019-03-30T05:28:30.585Z,4.9
2019-03-30T05:29:32.615Z,4.9
2019-03-30T05:30:34.654Z,4.9
2019-03-30T05:31:36.685Z,4.9
2019-03-30T05:32:42.762Z,5
2019-03-30T05:33:45.474Z,4.9
2019-03-30T05:34:47.495Z,4.9
2019-03-30T05:35:49.818Z,5
2019-03-30T05:36:51.858Z,5.1
2019-03-30T05:37:53.906Z,5.2
2019-03-30T05:38:55.938Z,5.2
2019-03-30T05:39:57.970Z,5.2
2019-03-30T05:41:00.330Z,5.2
2019-03-30T05:42:02.725Z,5.2
2019-03-30T05:43:05.041Z,5.3
2019-03-30T05:44:07.461Z,5.3
2019-03-30T05:45:09.779Z,5.2
2019-03-30T05:46:12.180Z,5.2
2019-03-30T05:47:14.626Z,5.3
2019-03-30T05:48:16.937Z,5.3
2019-03-30T05:49:18.974Z,5.3
2019-03-30T05:50:21.031Z,5.4
2019-03-30T05:51:23.048Z,5.3
2019-03-30T05:52:28.021Z,5.4
2019-03-30T05:53:30.327Z,5.4
2019-03-30T05:54:32.372Z,5.5
2019-03-30T05:55:34.683Z,5.5
2019-03-30T05:56:36.724Z,5.5
2019-03-30T05:57:38.769Z,5.5
2019-03-30T05:58:40.784Z,5.6
2019-03-30T05:59:42.822Z,5.6
2019-03-30T06:00:44.851Z,5.6
2019-03-30T06:01:46.890Z,5.6
2019-03-30T06:02:48.947Z,5.6
2019-03-30T06:03:50.995Z,5.7
2019-03-30T06:04:53.026Z,5.7
2019-03-30T06:05:55.063Z,5.7
2019-03-30T06:06:57.480Z,5.7
2019-03-30T06:07:59.498Z,5.8
2019-03-30T06:09:01.807Z,5.8
2019-03-30T06:10:04.149Z,5.7
2019-03-30T06:11:06.178Z,5.8
2019-03-30T06:12:08.599Z,5.8
2019-03-30T06:13:10.640Z,5.8
2019-03-30T06:14:12.686Z,5.8
2019-03-30T06:15:14.710Z,5.9
2019-03-30T06:16:16.751Z,5.9
2019-03-30T06:17:19.074Z,5.9
2019-03-30T06:18:21.153Z,6
2019-03-30T06:19:23.164Z,6
2019-03-30T06:20:25.205Z,6
2019-03-30T06:21:27.232Z,6
2019-03-30T06:22:41.807Z,6.1
2019-03-30T06:23:43.852Z,6.1
2019-03-30T06:24:45.877Z,6.1
2019-03-30T06:25:47.915Z,6.1
2019-03-30T06:26:49.951Z,6.2
2019-03-30T06:27:52.009Z,6.2
2019-03-30T06:28:54.035Z,6.2
2019-03-30T06:29:56.351Z,6.3
2019-03-30T06:30:58.390Z,6.3
2019-03-30T06:32:00.414Z,6.3
2019-03-30T06:33:02.462Z,6.3
2019-03-30T06:34:04.886Z,6.4
2019-03-30T06:35:07.208Z,6.4
2019-03-30T06:36:09.238Z,6.5
2019-03-30T06:37:11.282Z,6.5
2019-03-30T06:38:13.314Z,6.6
2019-03-30T06:39:15.373Z,6.6
2019-03-30T06:40:17.422Z,6.7
2019-03-30T06:41:19.444Z,6.7
2019-03-30T06:42:21.488Z,6.7
2019-03-30T06:43:23.919Z,6.7
2019-03-30T06:44:25.937Z,6.8
2019-03-30T06:45:27.983Z,6.8
2019-03-30T06:46:30.304Z,6.9
2019-03-30T06:47:32.341Z,6.9
2019-03-30T06:48:37.283Z,7
2019-03-30T06:49:39.315Z,7
2019-03-30T06:50:41.362Z,7
2019-03-30T06:51:43.674Z,7
2019-03-30T06:52:59.761Z,7.1
2019-03-30T06:54:01.811Z,7.2
2019-03-30T06:55:04.510Z,7.2
2019-03-30T06:56:06.540Z,7.2
2019-03-30T06:57:08.583Z,7.2
2019-03-30T06:58:10.614Z,7.2
2019-03-30T06:59:12.653Z,7.2
2019-03-30T07:00:15.074Z,7.3
2019-03-30T07:01:17.132Z,7.3
2019-03-30T07:02:19.160Z,7.4
2019-03-30T07:03:21.473Z,7.4
2019-03-30T07:04:23.895Z,7.4
2019-03-30T07:05:25.915Z,7.4
2019-03-30T07:06:27.956Z,7.5
2019-03-30T07:07:29.982Z,7.6
2019-03-30T07:08:32.111Z,7.6
2019-03-30T07:09:34.144Z,7.6
2019-03-30T07:10:40.109Z,7.7
2019-03-30T07:11:42.426Z,7.8
2019-03-30T07:12:44.538Z,7.8
2019-03-30T07:13:46.866Z,7.9
2019-03-30T07:14:48.887Z,8
2019-03-30T07:15:51.209Z,8.1
2019-03-30T07:16:53.252Z,8.1
2019-03-30T07:17:55.276Z,8.1
2019-03-30T07:18:57.318Z,8.1
2019-03-30T07:19:59.747Z,8.2
2019-03-30T07:21:01.783Z,8.3
2019-03-30T07:22:03.840Z,8.3
2019-03-30T07:23:14.119Z,8.3
2019-03-30T07:24:16.153Z,8.4
2019-03-30T07:25:18.177Z,8.3
2019-03-30T07:26:20.225Z,8.3
2019-03-30T07:27:22.310Z,8.4
2019-03-30T07:28:24.350Z,8.4
2019-03-30T07:29:26.479Z,8.6
2019-03-30T07:30:28.512Z,8.6
2019-03-30T07:31:30.559Z,8.6
2019-03-30T07:32:32.593Z,8.7
2019-03-30T07:33:34.682Z,8.8
2019-03-30T07:34:36.986Z,8.8
2019-03-30T07:35:39.327Z,8.9
2019-03-30T07:36:41.645Z,8.9
2019-03-30T07:37:43.675Z,9.1
2019-03-30T07:38:46.115Z,9.1
2019-03-30T07:39:48.136Z,9.2
2019-03-30T07:40:50.174Z,9.3
2019-03-30T07:41:52.525Z,9.3
2019-03-30T07:42:54.569Z,9.4
2019-03-30T07:43:56.595Z,9.5
2019-03-30T07:44:58.634Z,9.6
2019-03-30T07:46:00.740Z,9.6
2019-03-30T07:47:03.106Z,9.6
2019-03-30T07:48:05.454Z,9.7
2019-03-30T07:49:07.813Z,9.9
2019-03-30T07:50:09.840Z,10
2019-03-30T07:51:11.891Z,10.1
2019-03-30T07:52:13.921Z,10.3
2019-03-30T07:53:28.232Z,10.4
2019-03-30T07:54:30.278Z,10.7
2019-03-30T07:55:32.324Z,10.9
2019-03-30T07:56:34.710Z,10.9
2019-03-30T07:57:36.749Z,11.1
2019-03-30T07:58:39.108Z,11.3
2019-03-30T07:59:41.133Z,11.6
2019-03-30T08:00:44.146Z,11.8
2019-03-30T08:01:46.179Z,12
2019-03-30T08:02:48.221Z,12.1
2019-03-30T08:03:50.275Z,12.2
2019-03-30T08:04:52.305Z,12.5
2019-03-30T08:05:55.570Z,12.7
2019-03-30T08:06:57.602Z,13
2019-03-30T08:07:59.955Z,13
2019-03-30T08:09:02.298Z,13
2019-03-30T08:10:04.345Z,13.1
2019-03-30T08:11:06.399Z,13.2
2019-03-30T08:12:08.461Z,13.3
2019-03-30T08:13:10.773Z,13.3
2019-03-30T08:14:12.818Z,13.4
2019-03-30T08:15:14.862Z,13.7
2019-03-30T08:16:16.903Z,13.9
2019-03-30T08:17:18.935Z,13.8
2019-03-30T08:18:20.972Z,13.8
2019-03-30T08:19:23.071Z,13.9
2019-03-30T08:20:25.182Z,14.1
2019-03-30T08:21:27.236Z,14.1
2019-03-30T08:22:29.280Z,14.1
2019-03-30T08:23:41.848Z,14.2
2019-03-30T08:24:43.910Z,14.4
2019-03-30T08:25:45.970Z,14.4
2019-03-30T08:26:48.011Z,14.5
2019-03-30T08:27:50.060Z,14.5
2019-03-30T08:28:52.380Z,14.4
2019-03-30T08:29:54.435Z,14.5
2019-03-30T08:30:56.502Z,14.8
2019-03-30T08:31:58.549Z,14.9
2019-03-30T08:33:00.577Z,15.1
2019-03-30T08:34:02.636Z,15.1
2019-03-30T08:35:04.685Z,15.3
2019-03-30T08:36:06.766Z,15.5
2019-03-30T08:37:08.845Z,15.2
2019-03-30T08:38:10.881Z,15.5
2019-03-30T08:39:13.008Z,15.4
2019-03-30T08:40:15.612Z,15.4
2019-03-30T08:41:17.672Z,15.1
2019-03-30T08:42:20.082Z,15.3
2019-03-30T08:43:22.421Z,15.1
2019-03-30T08:44:24.486Z,15.4
2019-03-30T08:45:26.517Z,15.8
2019-03-30T08:46:28.595Z,15.8
2019-03-30T08:47:30.931Z,15.6
2019-03-30T08:48:32.991Z,15.1
2019-03-30T08:49:35.325Z,15.1
2019-03-30T08:50:37.361Z,15.1
2019-03-30T08:51:39.413Z,15.2
2019-03-30T08:52:41.460Z,15.3
2019-03-30T08:53:56.269Z,15.6
2019-03-30T08:54:58.325Z,15.7
2019-03-30T08:56:00.370Z,15.4
2019-03-30T08:57:02.419Z,15.5
2019-03-30T08:58:04.500Z,15.5
2019-03-30T08:59:06.843Z,15.3
2019-03-30T09:00:08.896Z,15.9
2019-03-30T09:01:10.958Z,15.6
2019-03-30T09:02:12.995Z,15.9
2019-03-30T09:03:15.060Z,15.9
2019-03-30T09:04:17.402Z,16.2
2019-03-30T09:05:19.455Z,16.3
2019-03-30T09:06:21.506Z,16.1
2019-03-30T09:07:23.568Z,16
2019-03-30T09:08:25.614Z,16.3
2019-03-30T09:09:27.946Z,16.4
2019-03-30T09:10:30.007Z,16.3
2019-03-30T09:11:32.039Z,16.4
2019-03-30T09:12:34.090Z,16.3
2019-03-30T09:13:36.134Z,16.2
2019-03-30T09:14:38.203Z,16.2
2019-03-30T09:15:40.245Z,16.2
2019-03-30T09:16:42.296Z,16.5
2019-03-30T09:17:44.346Z,17
2019-03-30T09:18:46.440Z,17.3
2019-03-30T09:19:48.503Z,17.5
2019-03-30T09:20:50.550Z,17.6
2019-03-30T09:21:52.884Z,17.5
2019-03-30T09:22:54.962Z,16.9
2019-03-30T09:24:11.629Z,17.1
2019-03-30T09:25:13.680Z,17
2019-03-30T09:26:17.734Z,17
2019-03-30T09:27:20.451Z,17
2019-03-30T09:28:22.509Z,17
2019-03-30T09:29:24.557Z,17.2
2019-03-30T09:30:26.655Z,17
2019-03-30T09:31:28.786Z,17.2
2019-03-30T09:32:31.126Z,17.3
2019-03-30T09:33:33.557Z,17.2
2019-03-30T09:34:35.798Z,17.4
2019-03-30T09:35:38.227Z,17.3
2019-03-30T09:36:41.149Z,17.7
2019-03-30T09:37:43.438Z,17.6
2019-03-30T09:38:45.792Z,17.9
2019-03-30T09:39:48.208Z,18
2019-03-30T09:40:50.284Z,18.3
2019-03-30T09:41:52.336Z,18.1
2019-03-30T09:42:54.711Z,18
2019-03-30T09:43:56.775Z,17.8
2019-03-30T09:44:59.596Z,18.3
2019-03-30T09:46:01.658Z,18.2
2019-03-30T09:47:03.702Z,18.2
2019-03-30T09:48:05.787Z,18.4
2019-03-30T09:49:08.119Z,18.4
2019-03-30T09:50:10.187Z,18.4
2019-03-30T09:51:12.241Z,18.6
2019-03-30T09:52:14.289Z,18.9
2019-03-30T09:53:16.356Z,18.5
2019-03-30T09:54:25.844Z,19.2
2019-03-30T09:55:28.547Z,18.9
2019-03-30T09:56:30.595Z,19
2019-03-30T09:57:32.674Z,18.8
2019-03-30T09:58:34.727Z,18.9
2019-03-30T09:59:36.795Z,18.9
2019-03-30T10:00:38.859Z,19.4
2019-03-30T10:01:40.904Z,19.5
2019-03-30T10:02:42.974Z,19.1
2019-03-30T10:03:45.117Z,19.3
2019-03-30T10:04:47.160Z,19.4
2019-03-30T10:05:49.502Z,19.3
2019-03-30T10:06:51.558Z,19
2019-03-30T10:07:53.900Z,19.1
2019-03-30T10:08:56.033Z,19
2019-03-30T10:09:58.369Z,19.3
2019-03-30T10:11:00.420Z,19.3
2019-03-30T10:12:02.469Z,19.6
2019-03-30T10:13:04.942Z,19.3
2019-03-30T10:14:06.991Z,19.3
2019-03-30T10:15:09.056Z,19.1
2019-03-30T10:16:11.113Z,19.5
2019-03-30T10:17:24.546Z,19
2019-03-30T10:18:36.432Z,19.1
2019-03-30T10:19:39.271Z,19.5
2019-03-30T10:20:41.399Z,19.2
2019-03-30T10:21:43.832Z,19.4
2019-03-30T10:22:46.004Z,20
2019-03-30T10:23:48.531Z,20.4
2019-03-30T10:24:50.603Z,20.1
2019-03-30T10:25:52.988Z,20.1
2019-03-30T10:26:55.114Z,19.9
2019-03-30T10:28:09.903Z,20.4
2019-03-30T10:29:12.375Z,20
2019-03-30T10:30:15.457Z,20.1
2019-03-30T10:31:17.695Z,20.1
2019-03-30T10:32:20.411Z,19.6
2019-03-30T10:33:23.122Z,19.6
2019-03-30T10:34:27.087Z,19.5
2019-03-30T10:35:31.009Z,19.3
2019-03-30T10:36:38.349Z,19.5
2019-03-30T10:37:42.582Z,19.5
2019-03-30T10:38:45.382Z,19.7
2019-03-30T10:39:49.668Z,19.9
2019-03-30T10:40:55.720Z,20
2019-03-30T10:41:58.987Z,19.7
2019-03-30T10:43:03.847Z,19.9
2019-03-30T10:44:10.864Z,20.4
2019-03-30T10:45:21.237Z,20.2
2019-03-30T10:46:30.170Z,19.9
2019-03-30T10:47:39.175Z,19.6
2019-03-30T10:48:46.216Z,19.3
2019-03-30T10:49:54.990Z,19.4
2019-03-30T10:51:02.884Z,19.4
2019-03-30T10:52:12.782Z,19.5
2019-03-30T10:53:21.825Z,19.4
2019-03-30T10:54:27.449Z,19.1
2019-03-30T10:55:36.475Z,18.8
2019-03-30T10:56:43.420Z,18.9
2019-03-30T10:57:52.985Z,19.1
2019-03-30T10:59:02.695Z,18.7
2019-03-30T11:00:12.168Z,18.6
2019-03-30T11:01:19.344Z,18.4
2019-03-30T11:02:28.546Z,18.7
2019-03-30T11:03:37.463Z,18.6
2019-03-30T11:04:44.918Z,18.4
2019-03-30T11:05:53.385Z,18.1
2019-03-30T11:07:04.248Z,18.3
2019-03-30T11:08:13.509Z,18.3
2019-03-30T11:09:19.751Z,18.3
2019-03-30T11:10:29.359Z,18.3
2019-03-30T11:11:41.171Z,18.5
2019-03-30T11:12:49.560Z,18.6
2019-03-30T11:13:58.828Z,18.5
2019-03-30T11:15:08.864Z,18.6
2019-03-30T11:16:18.349Z,18.7
2019-03-30T11:17:29.451Z,18.9
2019-03-30T11:18:39.618Z,19
2019-03-30T11:19:51.196Z,18.9
2019-03-30T11:21:03.642Z,18.8
2019-03-30T11:22:13.366Z,18.8
2019-03-30T11:23:25.950Z,18.5
2019-03-30T11:24:35.413Z,18.6
2019-03-30T11:25:46.777Z,18.5
2019-03-30T11:26:59.050Z,18.3
2019-03-30T11:28:08.891Z,18.4
2019-03-30T11:29:20.326Z,18.3
2019-03-30T11:30:29.074Z,18.2
2019-03-30T11:31:41.489Z,18.1
2019-03-30T11:32:54.815Z,18.5
2019-03-30T11:34:07.756Z,18.5
2019-03-30T11:35:19.959Z,18.4
2019-03-30T11:36:29.638Z,18.1
2019-03-30T11:37:40.608Z,17.9
2019-03-30T11:38:49.110Z,17.9
2019-03-30T11:40:01.412Z,17.9
2019-03-30T11:41:12.899Z,17.9
2019-03-30T11:42:22.319Z,18.2
2019-03-30T11:43:32.340Z,18.4
2019-03-30T11:44:42.817Z,18.4
2019-03-30T11:45:53.913Z,18.6
2019-03-30T11:47:06.011Z,18.5
2019-03-30T11:48:15.587Z,18.7
2019-03-30T11:49:25.237Z,19.1
2019-03-30T11:50:35.354Z,19.3
2019-03-30T11:51:45.183Z,19.4
2019-03-30T11:52:56.691Z,19.6
2019-03-30T11:54:09.070Z,19.5
2019-03-30T11:55:26.110Z,19.5
2019-03-30T11:56:40.332Z,19.3
2019-03-30T11:57:49.887Z,19.5
2019-03-30T11:58:57.899Z,19.9
2019-03-30T12:00:05.532Z,20
2019-03-30T12:01:15.539Z,19.7
2019-03-30T12:02:32.725Z,19.4
2019-03-30T12:03:41.810Z,19.4
2019-03-30T12:04:50.757Z,19.5
2019-03-30T12:05:57.390Z,19.5
2019-03-30T12:07:01.004Z,19.4
2019-03-30T12:08:03.079Z,19.6
2019-03-30T12:09:05.754Z,19.8
2019-03-30T12:10:07.814Z,20.4
2019-03-30T12:11:09.889Z,20.7
2019-03-30T12:12:11.953Z,20.6
2019-03-30T12:13:14.004Z,20.9
2019-03-30T12:14:16.052Z,20.6
2019-03-30T12:15:18.119Z,20.8
2019-03-30T12:16:20.170Z,20.8
2019-03-30T12:17:22.234Z,21.1
2019-03-30T12:18:24.681Z,21
2019-03-30T12:19:26.747Z,21.4
2019-03-30T12:20:28.799Z,21.4
2019-03-30T12:21:30.861Z,21.2
2019-03-30T12:22:32.909Z,21.2
2019-03-30T12:23:34.958Z,21.2
2019-03-30T12:24:37.411Z,21.1
2019-03-30T12:25:39.475Z,21.5
2019-03-30T12:26:41.813Z,21.9
2019-03-30T12:27:44.173Z,21.8
2019-03-30T12:28:46.227Z,21.8
2019-03-30T12:29:48.286Z,21.8
2019-03-30T12:30:50.351Z,21.7
2019-03-30T12:31:52.694Z,21.6
2019-03-30T12:32:55.071Z,21.7
2019-03-30T12:33:57.143Z,21.5
2019-03-30T12:34:59.211Z,21.8
2019-03-30T12:36:01.255Z,22.2
2019-03-30T12:37:03.335Z,21.9
2019-03-30T12:38:05.404Z,21.5
2019-03-30T12:39:07.747Z,21.5
2019-03-30T12:40:09.826Z,21.4
2019-03-30T12:41:11.869Z,21.5
2019-03-30T12:42:13.924Z,21.3
2019-03-30T12:43:15.976Z,21.1
2019-03-30T12:44:18.103Z,21.2
2019-03-30T12:45:20.161Z,21.5
2019-03-30T12:46:22.216Z,21.5
2019-03-30T12:47:24.279Z,21.6
2019-03-30T12:48:26.612Z,21.7
2019-03-30T12:49:28.682Z,21.6
2019-03-30T12:50:30.737Z,21.5
2019-03-30T12:51:32.788Z,21.3
2019-03-30T12:52:34.849Z,21.6
2019-03-30T12:53:51.610Z,21.7
2019-03-30T12:54:53.669Z,22
2019-03-30T12:55:55.739Z,21.9
2019-03-30T12:56:57.810Z,21.9
2019-03-30T12:58:00.139Z,21.9
2019-03-30T12:59:02.230Z,21.9
2019-03-30T13:00:04.588Z,21.8
2019-03-30T13:01:06.644Z,21.8
2019-03-30T13:02:08.713Z,21.4
2019-03-30T13:03:10.775Z,21.3
2019-03-30T13:04:12.841Z,21.5
2019-03-30T13:05:14.915Z,21.6
2019-03-30T13:06:17.251Z,21.3
2019-03-30T13:07:19.318Z,21
2019-03-30T13:08:21.395Z,20.9
2019-03-30T13:09:23.476Z,21
2019-03-30T13:10:25.836Z,21.5
2019-03-30T13:11:27.939Z,21.6
2019-03-30T13:12:30.014Z,21.9
2019-03-30T13:13:32.059Z,22
2019-03-30T13:14:34.137Z,21.9
2019-03-30T13:15:36.191Z,22
2019-03-30T13:16:38.254Z,22.1
2019-03-30T13:17:40.296Z,22
2019-03-30T13:18:42.394Z,21.9
2019-03-30T13:19:44.465Z,21.9
2019-03-30T13:20:46.908Z,21.8
2019-03-30T13:21:54.309Z,21.4
2019-03-30T13:22:56.375Z,21.6
2019-03-30T13:23:58.446Z,21.7
2019-03-30T13:25:00.630Z,21.7
2019-03-30T13:26:05.591Z,21.8
2019-03-30T13:27:07.762Z,21.9
2019-03-30T13:28:09.827Z,22.1
2019-03-30T13:29:11.881Z,22.1
2019-03-30T13:30:14.370Z,22
2019-03-30T13:31:16.442Z,22
2019-03-30T13:32:18.815Z,21.8
2019-03-30T13:33:20.892Z,22
2019-03-30T13:34:22.952Z,21.4
2019-03-30T13:35:25.017Z,21.5
2019-03-30T13:36:27.086Z,21.4
2019-03-30T13:37:29.442Z,21.4
2019-03-30T13:38:31.547Z,21.1
2019-03-30T13:39:33.596Z,21.2
2019-03-30T13:40:35.653Z,21.3
2019-03-30T13:41:37.707Z,21.3
2019-03-30T13:42:39.782Z,21.5
2019-03-30T13:43:41.829Z,21.4
2019-03-30T13:44:43.898Z,21.4
2019-03-30T13:45:45.961Z,21.1
2019-03-30T13:46:48.013Z,21.4
2019-03-30T13:47:50.083Z,21.5
2019-03-30T13:48:52.138Z,21.4
2019-03-30T13:49:54.254Z,21.1
2019-03-30T13:50:56.298Z,20.9
2019-03-30T13:51:58.367Z,21
2019-03-30T13:53:00.807Z,20.8
2019-03-30T13:54:02.863Z,21
2019-03-30T13:55:05.224Z,21.3
2019-03-30T13:56:19.006Z,21.2
2019-03-30T13:57:21.074Z,21.4
2019-03-30T13:58:23.213Z,21.5
2019-03-30T13:59:25.282Z,21.3
2019-03-30T14:00:27.717Z,21
2019-03-30T14:01:30.085Z,21.1
2019-03-30T14:02:32.166Z,20.9
2019-03-30T14:03:34.227Z,21.4
2019-03-30T14:04:36.561Z,21.5
2019-03-30T14:05:38.617Z,21.6
2019-03-30T14:06:40.687Z,21.8
2019-03-30T14:07:42.732Z,21.6
2019-03-30T14:08:44.797Z,21
2019-03-30T14:09:47.244Z,21.3
2019-03-30T14:10:49.603Z,21.5
2019-03-30T14:11:51.679Z,21.2
2019-03-30T14:12:53.732Z,21.4
2019-03-30T14:13:56.102Z,21.6
2019-03-30T14:14:58.147Z,21.7
2019-03-30T14:16:00.229Z,21.3
2019-03-30T14:17:02.271Z,21.6
2019-03-30T14:18:04.345Z,21.7
2019-03-30T14:19:06.410Z,21.8
2019-03-30T14:20:08.854Z,22.1
2019-03-30T14:21:10.919Z,21.9
2019-03-30T14:22:12.991Z,21.7
2019-03-30T14:23:15.050Z,21.5
2019-03-30T14:24:17.132Z,21.5